Nanticoke — VCQL — position and weather

sailwx.info

Track history (hours):
 
Tides and Currents Weather Stations Pressure Air Temp Water Temp Dewpoint Dewpoint Depression Visibility Wind Speed Wind Dir Waves Ship Positions

Nanticoke

Last reported at 2014-Dec-12 07:33 UTC. Time now 2014-Dec-21 09:19 UTC.
Position N 46°33' W 072°10'.
Warning: this ship's position is 9 days out of date.

Length 222 m; draft 7.9 m.

Type: Cargo ship. MMSI: 316043000.

Date/timePositionNaut miles runAvg speedWind from/ knotsBaromVisibWave heightAir tempDewpointWater temp
2014-Dec-12 07:33N 46°33' W 072°10'1212.3
2014-Dec-12 06:33N 46°25' W 072°23'1211.5
2014-Dec-12 05:33N 46°17' W 072°36'1312.6
2014-Dec-12 04:33N 46°12' W 072°53'51 9.7
2014-Dec-11 23:16N 45°28' W 073°30'4 5.7
2014-Dec-11 22:32N 45°24' W 073°34'1 0.5
2014-Dec-11 21:33N 45°24' W 073°34'1 0.7
2014-Dec-11 20:32N 45°24' W 073°35'5 4.7
2014-Dec-11 19:33N 45°25' W 073°42'10 9.6
2014-Dec-11 18:33N 45°20' W 073°54'2 2.3
2014-Dec-11 17:33N 45°18' W 073°56'3 3.5
2014-Dec-11 16:33N 45°15' W 073°58'10 9.3
2014-Dec-11 15:28N 45°14' W 074°12'5 0.2
2014-Dec-10 13:32N 45°13' W 074°05'8 7.9
2014-Dec-10 12:33N 45°17' W 073°56'2 1.7
2014-Dec-10 11:33N 45°19' W 073°55'0 0.5
2014-Dec-10 10:33N 45°19' W 073°55'5 5.3
2014-Dec-10 09:33N 45°23' W 073°49'7 6.9
2014-Dec-10 08:33N 45°25' W 073°39'4 3.8
2014-Dec-10 07:33N 45°24' W 073°34'2 2.1
2014-Dec-10 06:33N 45°25' W 073°31'6 2.8
2014-Dec-10 04:25N 45°31' W 073°31'43 3.5
2014-Dec-09 16:10N 46°07' W 072°58'6 9.6
2014-Dec-09 15:33N 46°12' W 072°53'1010.1
2014-Dec-09 14:33N 46°16' W 072°40'8 8.3
2014-Dec-09 13:33N 46°21' W 072°31'9 8.8
2014-Dec-09 12:33N 46°26' W 072°21'8 8.0
2014-Dec-09 11:32N 46°32' W 072°12'  
2014-Dec-02 16:33N 46°34' W 072°04'1313.4
2014-Dec-02 15:33N 46°26' W 072°20'1313.1
2014-Dec-02 14:33N 46°18' W 072°34'1211.9
2014-Dec-02 13:33N 46°13' W 072°50'1212.3
2014-Dec-02 12:33N 46°04' W 073°02'1111.2
2014-Dec-02 11:33N 45°55' W 073°13'1313.0
2014-Dec-02 10:33N 45°45' W 073°24'1312.8
2014-Dec-02 09:33N 45°33' W 073°31'4 3.8
2014-Dec-02 08:33N 45°29' W 073°31'1 1.1
2014-Dec-02 07:33N 45°28' W 073°30'  
Track history (hours):
 
Tides and Currents Weather Stations Pressure Air Temp Water Temp Dewpoint Dewpoint Depression Visibility Wind Speed Wind Dir Waves Ship Positions

Nanticoke

Last reported at 2014-Dec-12 07:33 UTC. Time now 2014-Dec-21 09:19 UTC.
Position N 46°33' W 072°10'.
Warning: this ship's position is 9 days out of date.

Length 222 m; draft 7.9 m.

Type: Cargo ship. MMSI: 316043000.

Date/timePositionNaut miles runAvg speedWind from/ knotsBaromVisibWave heightAir tempDewpointWater temp
2014-Dec-12 07:33N 46°33' W 072°10'1212.3
2014-Dec-12 06:33N 46°25' W 072°23'1211.5
2014-Dec-12 05:33N 46°17' W 072°36'1312.6
2014-Dec-12 04:33N 46°12' W 072°53'51 9.7
2014-Dec-11 23:16N 45°28' W 073°30'4 5.7
2014-Dec-11 22:32N 45°24' W 073°34'1 0.5
2014-Dec-11 21:33N 45°24' W 073°34'1 0.7
2014-Dec-11 20:32N 45°24' W 073°35'5 4.7
2014-Dec-11 19:33N 45°25' W 073°42'10 9.6
2014-Dec-11 18:33N 45°20' W 073°54'2 2.3
2014-Dec-11 17:33N 45°18' W 073°56'3 3.5
2014-Dec-11 16:33N 45°15' W 073°58'10 9.3
2014-Dec-11 15:28N 45°14' W 074°12'5 0.2
2014-Dec-10 13:32N 45°13' W 074°05'8 7.9
2014-Dec-10 12:33N 45°17' W 073°56'2 1.7
2014-Dec-10 11:33N 45°19' W 073°55'0 0.5
2014-Dec-10 10:33N 45°19' W 073°55'5 5.3
2014-Dec-10 09:33N 45°23' W 073°49'7 6.9
2014-Dec-10 08:33N 45°25' W 073°39'4 3.8
2014-Dec-10 07:33N 45°24' W 073°34'2 2.1
2014-Dec-10 06:33N 45°25' W 073°31'6 2.8
2014-Dec-10 04:25N 45°31' W 073°31'43 3.5
2014-Dec-09 16:10N 46°07' W 072°58'6 9.6
2014-Dec-09 15:33N 46°12' W 072°53'1010.1
2014-Dec-09 14:33N 46°16' W 072°40'8 8.3
2014-Dec-09 13:33N 46°21' W 072°31'9 8.8
2014-Dec-09 12:33N 46°26' W 072°21'8 8.0
2014-Dec-09 11:32N 46°32' W 072°12'  
2014-Dec-02 16:33N 46°34' W 072°04'1313.4
2014-Dec-02 15:33N 46°26' W 072°20'1313.1
2014-Dec-02 14:33N 46°18' W 072°34'1211.9
2014-Dec-02 13:33N 46°13' W 072°50'1212.3
2014-Dec-02 12:33N 46°04' W 073°02'1111.2
2014-Dec-02 11:33N 45°55' W 073°13'1313.0
2014-Dec-02 10:33N 45°45' W 073°24'1312.8
2014-Dec-02 09:33N 45°33' W 073°31'4 3.8
2014-Dec-02 08:33N 45°29' W 073°31'1 1.1
2014-Dec-02 07:33N 45°28' W 073°30'  

Dump ship's entire track history